Time;durP1;ratioP1;P1;durP2;ratioP2;P2;SDS_P1;SDS_P2;PMS_P1;PMS_P2;Temp;Humidity;BMP_temperature;BMP_pressure;BME280_temperature;BME280_humidity;BME280_pressure;Samples;Min_cycle;Max_cycle;Signal;HPM_P1;HPM_P2
2022/09/17 00:02:16;;;;;;;;;;;;;;;10.26;100.00;101301.16;5022922;28;20376;-39
2022/09/17 00:04:41;;;;;;;;;;;;;;;10.28;100.00;101301.00;5020914;28;19923;-39
2022/09/17 00:07:06;;;;;;;;;;;;;;;10.30;100.00;101299.03;5021147;28;19917;-40
2022/09/17 00:09:31;;;;;;;;;;;;;;;10.33;100.00;101297.94;5022124;28;20396;-40
2022/09/17 00:11:57;;;;;;;;;;;;;;;10.33;100.00;101296.09;5022502;28;19956;-40
2022/09/17 00:14:22;;;;;;;;;;;;;;;10.35;100.00;101301.28;5021413;28;19931;-40
2022/09/17 00:16:48;;;;;;;;;;;;;;;10.36;100.00;101306.47;5022634;28;19928;-40
2022/09/17 00:19:15;;;;;;;;;;;;;;;10.40;100.00;101307.03;5020937;28;20011;-43
2022/09/17 00:21:40;;;;;;;;;;;;;;;10.39;100.00;101300.84;5020999;28;20360;-42
2022/09/17 00:24:06;;;;;;;;;;;;;;;10.39;100.00;101303.53;5020897;28;20020;-40
2022/09/17 00:26:32;;;;;;;;;;;;;;;10.38;100.00;101306.34;5022434;28;20136;-40
2022/09/17 00:28:58;;;;;;;;;;;;;;;10.37;100.00;101305.50;5021855;28;20295;-41
2022/09/17 00:31:25;;;;;;;;;;;;;;;10.40;100.00;101307.03;5022532;28;19928;-40
2022/09/17 00:33:50;;;;;;;;;;;;;;;10.41;100.00;101314.06;5021977;28;20348;-40
2022/09/17 00:36:16;;;;;;;;;;;;;;;10.42;100.00;101308.56;5020869;28;19920;-40
2022/09/17 00:38:41;;;;;;;;;;;;;;;10.48;100.00;101303.63;5021832;28;20055;-45
2022/09/17 00:41:06;;;;;;;;;;;;;;;10.50;100.00;101305.13;5021599;28;20326;-42
2022/09/17 00:43:37;;;;;;;;;;;;;;;10.50;100.00;101313.16;5021804;28;19913;-45
2022/09/17 00:46:04;;;;;;;;;;;;;;;10.50;100.00;101320.34;5021396;28;20409;-42
2022/09/17 00:48:29;;;;;;;;;;;;;;;10.48;100.00;101325.00;5008495;28;19913;-41
2022/09/17 00:50:55;;;;;;;;;;;;;;;10.47;100.00;101321.44;5020171;28;19924;-40
2022/09/17 00:53:21;;;;;;;;;;;;;;;10.48;100.00;101319.66;5021137;28;19913;-43
2022/09/17 00:55:47;;;;;;;;;;;;;;;10.45;100.00;101323.44;5020205;28;19924;-40
2022/09/17 00:58:13;;;;;;;;;;;;;;;10.43;100.00;101322.75;5020558;28;20398;-41
2022/09/17 01:00:39;;;;;;;;;;;;;;;10.43;100.00;101328.91;5020197;28;20311;-43
2022/09/17 01:03:05;;;;;;;;;;;;;;;10.45;100.00;101326.97;5021164;28;20079;-42
2022/09/17 01:05:43;;;;;;;;;;;;;;;10.43;100.00;101334.25;5019900;28;20504;-40
2022/09/17 01:08:27;;;;;;;;;;;;;;;10.44;100.00;101335.13;5020550;28;20360;-41
2022/09/17 01:11:11;;;;;;;;;;;;;;;10.44;100.00;101321.78;5009068;28;19917;-43
2022/09/17 01:14:02;;;;;;;;;;;;;;;10.48;100.00;101333.00;5021430;28;20399;-41
2022/09/17 01:16:40;;;;;;;;;;;;;;;10.44;100.00;101337.78;5020064;28;19955;-42
2022/09/17 01:19:25;;;;;;;;;;;;;;;10.43;100.00;101338.78;5019904;28;19936;-41
2022/09/17 01:22:08;;;;;;;;;;;;;;;10.45;100.00;101344.81;5018571;28;19924;-42
2022/09/17 01:24:51;;;;;;;;;;;;;;;10.44;100.00;101338.63;5020807;28;19976;-41
2022/09/17 01:27:35;;;;;;;;;;;;;;;10.40;100.00;101339.94;5020425;28;19917;-43
2022/09/17 01:30:22;;;;;;;;;;;;;;;10.40;100.00;101336.38;5020044;28;19913;-41
2022/09/17 01:32:58;;;;;;;;;;;;;;;10.36;100.00;101341.19;5008120;28;19991;-43
2022/09/17 01:35:34;;;;;;;;;;;;;;;10.36;100.00;101346.53;5018368;28;19921;-42
2022/09/17 01:38:14;;;;;;;;;;;;;;;10.37;100.00;101342.03;5019818;28;19956;-40
2022/09/17 01:40:51;;;;;;;;;;;;;;;10.38;100.00;101347.22;5020264;28;19913;-42
2022/09/17 01:43:22;;;;;;;;;;;;;;;10.38;100.00;101347.22;5020220;28;19913;-42
2022/09/17 01:45:52;;;;;;;;;;;;;;;10.35;100.00;101352.88;5020279;28;19916;-42
2022/09/17 01:48:19;;;;;;;;;;;;;;;10.32;100.00;101358.50;5020161;28;19951;-41
2022/09/17 01:50:50;;;;;;;;;;;;;;;10.27;100.00;101353.56;5019064;28;19964;-41
2022/09/17 01:53:17;;;;;;;;;;;;;;;10.24;100.00;101353.84;5018946;28;20281;-41
2022/09/17 01:55:44;;;;;;;;;;;;;;;10.24;100.00;101350.34;5020357;28;20303;-41
2022/09/17 01:58:13;;;;;;;;;;;;;;;10.22;100.00;101347.81;5020223;28;20350;-42
2022/09/17 02:00:41;;;;;;;;;;;;;;;10.20;100.00;101351.63;5014867;28;19948;-40
2022/09/17 02:03:13;;;;;;;;;;;;;;;10.21;100.00;101350.63;5019781;28;19921;-41
2022/09/17 02:05:42;;;;;;;;;;;;;;;10.24;100.00;101353.03;5017868;28;19918;-41
2022/09/17 02:08:09;;;;;;;;;;;;;;;10.23;100.00;101348.66;5019409;28;20395;-41
2022/09/17 02:10:41;;;;;;;;;;;;;;;10.26;100.00;101356.38;5020038;28;19992;-46
2022/09/17 02:13:09;;;;;;;;;;;;;;;10.25;100.00;101352.88;5019916;28;19967;-40
2022/09/17 02:15:41;;;;;;;;;;;;;;;10.29;100.00;101352.59;5019787;28;19948;-43
2022/09/17 02:18:10;;;;;;;;;;;;;;;10.29;100.00;101358.75;5017935;28;20426;-41
2022/09/17 02:20:39;;;;;;;;;;;;;;;10.31;100.00;101353.28;5018148;28;19914;-41
2022/09/17 02:23:09;;;;;;;;;;;;;;;10.31;100.00;101355.94;5018956;28;19981;-41
2022/09/17 02:25:41;;;;;;;;;;;;;;;10.32;100.00;101360.31;5019633;28;20020;-42
2022/09/17 02:28:24;;;;;;;;;;;;;;;10.28;100.00;101362.41;5018217;28;19933;-43
2022/09/17 02:30:49;;;;;;;;;;;;;;;10.22;100.00;101357.66;5018152;28;20027;-41
2022/09/17 02:33:14;;;;;;;;;;;;;;;10.21;100.00;101353.31;5019492;28;20451;-40
2022/09/17 02:35:40;;;;;;;;;;;;;;;10.19;100.00;101349.94;5018188;28;19914;-40
2022/09/17 02:38:05;;;;;;;;;;;;;;;10.18;100.00;101356.25;5018623;28;19913;-40
2022/09/17 02:40:34;;;;;;;;;;;;;;;10.15;100.00;101369.91;5018736;28;19924;-41
2022/09/17 02:43:05;;;;;;;;;;;;;;;10.15;100.00;101370.75;5019734;28;19913;-40
2022/09/17 02:45:39;;;;;;;;;;;;;;;10.18;100.00;101374.94;5019270;28;19921;-42
2022/09/17 02:48:27;;;;;;;;;;;;;;;10.19;100.00;101372.13;5019398;28;19992;-39
2022/09/17 02:51:04;;;;;;;;;;;;;;;10.22;100.00;101371.03;5012984;28;20292;-40
2022/09/17 02:53:38;;;;;;;;;;;;;;;10.25;100.00;101373.38;5018703;28;19920;-40
2022/09/17 02:56:13;;;;;;;;;;;;;;;10.28;100.00;101362.41;5018971;28;19917;-41
2022/09/17 02:58:47;;;;;;;;;;;;;;;10.31;100.00;101363.97;5019932;28;19944;-40
2022/09/17 03:01:17;;;;;;;;;;;;;;;10.31;100.00;101366.63;5019146;28;19989;-42
2022/09/17 03:03:43;;;;;;;;;;;;;;;10.31;100.00;101369.28;5019847;28;19971;-42
2022/09/17 03:06:08;;;;;;;;;;;;;;;10.28;100.00;101365.06;5017513;28;19956;-42
2022/09/17 03:08:35;;;;;;;;;;;;;;;10.26;100.00;101364.38;5017956;28;20378;-42
2022/09/17 03:11:01;;;;;;;;;;;;;;;10.18;100.00;101366.94;5019197;28;20305;-42
2022/09/17 03:13:26;;;;;;;;;;;;;;;10.12;100.00;101364.88;5020150;28;19921;-40
2022/09/17 03:15:51;;;;;;;;;;;;;;;10.08;100.00;101374.97;5018849;28;20436;-40
2022/09/17 03:18:16;;;;;;;;;;;;;;;10.05;100.00;101375.28;5019865;28;20217;-41
2022/09/17 03:20:42;;;;;;;;;;;;;;;10.02;100.00;101378.22;5018033;28;19913;-41
2022/09/17 03:23:07;;;;;;;;;;;;;;;9.99;100.00;101375.84;5018035;28;20411;-43
2022/09/17 03:25:32;;;;;;;;;;;;;;;9.96;100.00;101378.81;5018551;28;19966;-39
2022/09/17 03:27:58;;;;;;;;;;;;;;;9.93;100.00;101379.94;5019236;28;20245;-41
2022/09/17 03:30:23;;;;;;;;;;;;;;;9.91;100.00;101373.88;5018972;28;20303;-41
2022/09/17 03:32:48;;;;;;;;;;;;;;;9.89;100.00;101376.72;5019855;28;20276;-39
2022/09/17 03:35:13;;;;;;;;;;;;;;;9.87;100.00;101372.50;5016863;28;20252;-39
2022/09/17 03:37:38;;;;;;;;;;;;;;;9.83;100.00;101368.44;5018599;28;19914;-40
2022/09/17 03:40:04;;;;;;;;;;;;;;;9.80;100.00;101358.06;5017790;28;20344;-40
2022/09/17 03:42:29;;;;;;;;;;;;;;;9.79;100.00;101359.91;5022839;28;19917;-39
2022/09/17 03:44:55;;;;;;;;;;;;;;;9.79;100.00;101364.38;5021987;28;19928;-43
2022/09/17 03:47:21;;;;;;;;;;;;;;;9.81;100.00;101367.72;5023021;28;20144;-43
2022/09/17 03:49:46;;;;;;;;;;;;;;;9.79;100.00;101356.38;5021108;28;19913;-43
2022/09/17 03:52:11;;;;;;;;;;;;;;;9.81;100.00;101360.59;5021135;28;19917;-40
2022/09/17 03:54:37;;;;;;;;;;;;;;;9.80;100.00;101361.56;5022499;28;19913;-40
2022/09/17 03:57:02;;;;;;;;;;;;;;;9.78;100.00;101366.22;5022388;28;19923;-41
2022/09/17 03:59:28;;;;;;;;;;;;;;;9.76;100.00;101370.84;5022785;28;19913;-42
2022/09/17 04:01:53;;;;;;;;;;;;;;;9.71;100.00;101379.28;5022213;28;19932;-41
2022/09/17 04:04:18;;;;;;;;;;;;;;;9.65;100.00;101381.66;5021213;28;20236;-40
2022/09/17 04:06:44;;;;;;;;;;;;;;;9.61;100.00;101385.59;5021147;28;19922;-42
2022/09/17 04:09:09;;;;;;;;;;;;;;;9.58;100.00;101380.56;5022010;28;19917;-41
2022/09/17 04:11:34;;;;;;;;;;;;;;;9.57;100.00;101393.03;5021197;28;20354;-39
2022/09/17 04:13:59;;;;;;;;;;;;;;;9.56;100.00;101395.84;5021967;28;19913;-41
2022/09/17 04:16:25;;;;;;;;;;;;;;;9.55;100.00;101388.81;5022439;28;19906;-40
2022/09/17 04:18:50;;;;;;;;;;;;;;;9.55;100.00;101388.81;5021656;28;19936;-41
2022/09/17 04:21:15;;;;;;;;;;;;;;;9.56;100.00;101395.84;5019966;28;19913;-41
2022/09/17 04:23:40;;;;;;;;;;;;;;;9.59;100.00;101390.22;5022315;28;19981;-40
2022/09/17 04:26:05;;;;;;;;;;;;;;;9.56;100.00;101391.34;5020820;28;20240;-41
2022/09/17 04:28:31;;;;;;;;;;;;;;;9.65;100.00;101390.50;5021627;28;20391;-40
2022/09/17 04:30:56;;;;;;;;;;;;;;;9.70;100.00;101400.75;5011116;28;20111;-42
2022/09/17 04:33:22;;;;;;;;;;;;;;;9.73;100.00;101400.47;5022224;28;19913;-43
2022/09/17 04:35:47;;;;;;;;;;;;;;;9.76;100.00;101391.31;5020392;28;19913;-40
2022/09/17 04:38:17;;;;;;;;;;;;;;;9.77;100.00;101388.53;5020311;28;19924;-42
2022/09/17 04:40:42;;;;;;;;;;;;;;;9.76;100.00;101383.31;5021284;28;19913;-41
2022/09/17 04:43:09;;;;;;;;;;;;;;;9.76;100.00;101391.31;5019750;28;20322;-42
2022/09/17 04:45:34;;;;;;;;;;;;;;;9.77;100.00;101393.03;5021253;28;20055;-40
2022/09/17 04:48:00;;;;;;;;;;;;;;;9.74;100.00;101396.81;5021487;28;19956;-42
2022/09/17 04:50:26;;;;;;;;;;;;;;;9.69;100.00;101394.59;5018251;28;19943;-41
2022/09/17 04:52:51;;;;;;;;;;;;;;;9.66;100.00;101394.03;5020427;28;19913;-40
2022/09/17 04:55:16;;;;;;;;;;;;;;;9.62;100.00;101390.81;5020978;28;19913;-41
2022/09/17 04:57:45;;;;;;;;;;;;;;;9.58;100.00;101385.88;5021395;28;19957;-42
2022/09/17 05:00:10;;;;;;;;;;;;;;;9.52;100.00;101390.81;5020356;28;19924;-41
2022/09/17 05:02:35;;;;;;;;;;;;;;;9.47;100.00;101385.03;5021412;28;19921;-41
2022/09/17 05:05:01;;;;;;;;;;;;;;;9.44;100.00;101392.50;5019195;28;20484;-41
2022/09/17 05:07:26;;;;;;;;;;;;;;;9.41;100.00;101396.25;5021226;28;19920;-41
2022/09/17 05:09:52;;;;;;;;;;;;;;;9.38;100.00;101393.03;5020313;28;19924;-40
2022/09/17 05:12:17;;;;;;;;;;;;;;;9.37;100.00;101388.69;5020583;28;19924;-42
2022/09/17 05:14:42;;;;;;;;;;;;;;;9.34;100.00;101395.16;5021713;28;19921;-42
2022/09/17 05:17:07;;;;;;;;;;;;;;;9.32;100.00;101397.94;5020906;28;20324;-41
2022/09/17 05:19:32;;;;;;;;;;;;;;;9.31;100.00;101401.59;5015482;28;19921;-42
2022/09/17 05:21:58;;;;;;;;;;;;;;;9.30;100.00;101399.91;5015651;28;20304;-42
2022/09/17 05:24:23;;;;;;;;;;;;;;;9.31;100.00;101408.75;5020692;28;20032;-41
2022/09/17 05:26:48;;;;;;;;;;;;;;;9.29;100.00;101406.22;5019902;28;19917;-40
2022/09/17 05:29:13;;;;;;;;;;;;;;;9.29;100.00;101405.38;5019856;28;20027;-42
2022/09/17 05:31:38;;;;;;;;;;;;;;;9.29;100.00;101414.22;5021505;28;19940;-41
2022/09/17 05:34:04;;;;;;;;;;;;;;;9.29;100.00;101422.22;5019319;28;19920;-40
2022/09/17 05:36:29;;;;;;;;;;;;;;;9.29;100.00;101422.22;5018071;28;19994;-40
2022/09/17 05:38:54;;;;;;;;;;;;;;;9.30;100.00;101420.38;5020415;28;19963;-41
2022/09/17 05:41:19;;;;;;;;;;;;;;;9.29;100.00;101419.53;5020464;28;20321;-42
2022/09/17 05:43:45;;;;;;;;;;;;;;;9.31;100.00;101424.75;5020135;28;19913;-42
2022/09/17 05:46:10;;;;;;;;;;;;;;;9.32;100.00;101421.09;5019973;28;19995;-40
2022/09/17 05:48:35;;;;;;;;;;;;;;;9.36;100.00;101424.34;5021013;28;19913;-42
2022/09/17 05:51:00;;;;;;;;;;;;;;;9.43;100.00;101420.13;5017768;28;19924;-40
2022/09/17 05:53:26;;;;;;;;;;;;;;;9.55;100.00;101436.81;5020739;28;19942;-42
2022/09/17 05:55:55;;;;;;;;;;;;;;;9.64;100.00;101435.97;5019735;28;19920;-41
2022/09/17 05:58:20;;;;;;;;;;;;;;;9.66;100.00;101450.88;5019646;28;19924;-40
2022/09/17 06:00:47;;;;;;;;;;;;;;;9.69;100.00;101445.25;5020304;28;20327;-41
2022/09/17 06:03:14;;;;;;;;;;;;;;;9.76;100.00;101447.34;5019396;28;20242;-41
2022/09/17 06:05:39;;;;;;;;;;;;;;;9.78;100.00;101454.25;5018941;28;20011;-40
2022/09/17 06:08:04;;;;;;;;;;;;;;;9.83;100.00;101449.31;5019173;28;19995;-40
2022/09/17 06:10:30;;;;;;;;;;;;;;;9.84;100.00;101435.00;5013311;28;19917;-39
2022/09/17 06:12:56;;;;;;;;;;;;;;;9.86;100.00;101440.19;5020346;28;20007;-41
2022/09/17 06:15:21;;;;;;;;;;;;;;;9.87;100.00;101436.53;5017547;28;20443;-40
2022/09/17 06:17:46;;;;;;;;;;;;;;;9.88;100.00;101439.06;5020726;28;20031;-42
2022/09/17 06:20:12;;;;;;;;;;;;;;;9.88;100.00;101443.56;5017783;28;19924;-42
2022/09/17 06:22:37;;;;;;;;;;;;;;;9.86;100.00;101451.72;5019642;28;19921;-41
2022/09/17 06:25:02;;;;;;;;;;;;;;;9.88;100.00;101459.56;5019412;28;19972;-41
2022/09/17 06:27:31;;;;;;;;;;;;;;;9.92;100.00;101457.47;5020443;28;19924;-41
2022/09/17 06:29:57;;;;;;;;;;;;;;;10.01;100.00;101454.78;5019284;28;19913;-42
2022/09/17 06:32:22;;;;;;;;;;;;;;;10.09;100.00;101460.22;5034904;28;20004;-41
2022/09/17 06:34:48;;;;;;;;;;;;;;;10.12;100.00;101445.78;5018934;28;19992;-42
2022/09/17 06:37:13;;;;;;;;;;;;;;;10.12;100.00;101445.78;5018526;28;19963;-41
2022/09/17 06:39:38;;;;;;;;;;;;;;;10.09;100.00;101449.56;5019733;28;19937;-39
2022/09/17 06:42:04;;;;;;;;;;;;;;;10.09;100.00;101452.22;5019768;28;19917;-39
2022/09/17 06:44:29;;;;;;;;;;;;;;;10.12;100.00;101460.97;5019912;28;20024;-39
2022/09/17 06:46:55;;;;;;;;;;;;;;;10.09;100.00;101460.22;5018824;28;19924;-40
2022/09/17 06:49:21;;;;;;;;;;;;;;;10.06;100.00;101460.53;5018953;28;19921;-39
2022/09/17 06:51:46;;;;;;;;;;;;;;;10.01;100.00;101454.78;5018547;28;19913;-40
2022/09/17 06:54:11;;;;;;;;;;;;;;;10.02;100.00;101459.13;5018736;28;20408;-41
2022/09/17 06:56:37;;;;;;;;;;;;;;;10.03;100.00;101459.97;5019806;28;19920;-42
2022/09/17 06:59:02;;;;;;;;;;;;;;;10.07;100.00;101458.72;5019632;28;19913;-39
2022/09/17 07:01:28;;;;;;;;;;;;;;;10.11;100.00;101451.25;5018857;28;19913;-41
2022/09/17 07:03:53;;;;;;;;;;;;;;;10.17;100.00;101461.38;5018566;28;19924;-39
2022/09/17 07:06:19;;;;;;;;;;;;;;;10.24;100.00;101460.63;5015940;28;19968;-42
2022/09/17 07:08:44;;;;;;;;;;;;;;;10.33;100.00;101456.28;5019685;28;20280;-41
2022/09/17 07:11:09;;;;;;;;;;;;;;;10.43;100.00;101462.44;5019080;28;19917;-39
2022/09/17 07:13:34;;;;;;;;;;;;;;;10.58;100.00;101465.50;5019988;28;19917;-41
2022/09/17 07:16:00;;;;;;;;;;;;;;;10.68;100.00;101465.47;5023221;28;19913;-42
2022/09/17 07:18:26;;;;;;;;;;;;;;;10.82;100.00;101456.94;5023413;28;19913;-41
2022/09/17 07:20:52;;;;;;;;;;;;;;;10.95;100.00;101466.47;5020101;28;20372;-41
2022/09/17 07:23:18;;;;;;;;;;;;;;;11.09;100.00;101468.66;5023893;28;19935;-40
2022/09/17 07:25:43;;;;;;;;;;;;;;;11.28;100.00;101469.53;5022913;28;20478;-40
2022/09/17 07:28:08;;;;;;;;;;;;;;;11.48;100.00;101483.63;5021541;28;19921;-42
2022/09/17 07:30:33;;;;;;;;;;;;;;;11.63;100.00;101484.78;5005904;28;19928;-40
2022/09/17 07:33:00;;;;;;;;;;;;;;;11.76;100.00;101476.34;5003766;28;19914;-41
2022/09/17 07:35:25;;;;;;;;;;;;;;;11.92;100.00;101473.03;5001116;28;20004;-40
2022/09/17 07:37:50;;;;;;;;;;;;;;;11.96;100.00;101471.72;5004868;28;20028;-42
2022/09/17 07:40:15;;;;;;;;;;;;;;;12.02;100.00;101471.09;5022564;28;19913;-42
2022/09/17 07:42:41;;;;;;;;;;;;;;;12.08;100.00;101473.16;5009058;28;19964;-40
2022/09/17 07:45:06;;;;;;;;;;;;;;;12.16;100.00;101471.53;5021761;28;19932;-44
2022/09/17 07:47:36;;;;;;;;;;;;;;;12.23;100.00;101477.94;5019781;28;19917;-43
2022/09/17 07:50:01;;;;;;;;;;;;;;;12.35;100.00;101465.13;5014299;28;19955;-41
2022/09/17 07:52:27;;;;;;;;;;;;;;;12.48;100.00;101470.91;5010634;28;19981;-41
2022/09/17 07:54:52;;;;;;;;;;;;;;;12.57;100.00;101472.63;5002271;28;19921;-42
2022/09/17 07:57:17;;;;;;;;;;;;;;;12.67;100.00;101472.53;5003516;28;20019;-40
2022/09/17 07:59:42;;;;;;;;;;;;;;;12.74;100.00;101478.09;5001836;28;20399;-41
2022/09/17 08:02:12;;;;;;;;;;;;;;;12.73;100.00;101473.72;5002543;28;19975;-44
2022/09/17 08:04:37;;;;;;;;;;;;;;;12.86;100.00;101476.78;5001491;28;20020;-42
2022/09/17 08:07:02;;;;;;;;;;;;;;;13.00;100.00;101478.88;5003622;28;20055;-41
2022/09/17 08:09:27;;;;;;;;;;;;;;;12.99;100.00;101479.88;5011174;28;20039;-42
2022/09/17 08:11:52;;;;;;;;;;;;;;;12.85;100.00;101472.47;5000488;28;20103;-42
2022/09/17 08:14:18;;;;;;;;;;;;;;;12.86;100.00;101476.78;5001738;28;19919;-41
2022/09/17 08:16:45;;;;;;;;;;;;;;;12.75;100.00;101474.41;5002155;28;19921;-43
2022/09/17 08:19:10;;;;;;;;;;;;;;;12.80;100.00;101477.47;5008635;28;20043;-40
2022/09/17 08:21:35;;;;;;;;;;;;;;;12.95;100.00;101483.91;5001263;28;20008;-41
2022/09/17 08:24:01;;;;;;;;;;;;;;;13.10;100.00;101478.72;5018252;28;19924;-42
2022/09/17 08:26:26;;;;;;;;;;;;;;;13.27;100.00;101479.63;5020291;28;20380;-43
2022/09/17 08:28:56;;;;;;;;;;;;;;;13.43;100.00;101468.97;5014178;28;20028;-42
2022/09/17 08:31:22;;;;;;;;;;;;;;;13.63;100.00;101471.38;5002125;28;19917;-42
2022/09/17 08:33:47;;;;;;;;;;;;;;;13.79;100.00;101471.38;5002761;28;19920;-42
2022/09/17 08:36:14;;;;;;;;;;;;;;;13.94;100.00;101468.03;4999302;28;20323;-43
2022/09/17 08:38:40;;;;;;;;;;;;;;;14.02;100.00;101473.41;5010830;28;19917;-41
2022/09/17 08:41:08;;;;;;;;;;;;;;;14.06;100.00;101472.03;5019358;28;20394;-40
2022/09/17 08:43:39;;;;;;;;;;;;;;;14.26;100.00;101477.09;5021988;28;20010;-42
2022/09/17 08:46:04;;;;;;;;;;;;;;;14.52;100.00;101471.47;5021027;28;19925;-40
2022/09/17 08:48:36;;;;;;;;;;;;;;;14.72;99.27;101480.84;5022100;28;19917;-43
2022/09/17 08:51:10;;;;;;;;;;;;;;;15.08;94.48;101483.06;5018119;28;20287;-40
2022/09/17 08:53:37;;;;;;;;;;;;;;;15.30;96.39;101481.44;5021575;28;19920;-42
2022/09/17 08:56:10;;;;;;;;;;;;;;;15.24;98.81;101475.94;5021203;28;19935;-46
2022/09/17 08:58:39;;;;;;;;;;;;;;;14.88;97.34;101482.69;5021412;28;19919;-43
2022/09/17 09:01:07;;;;;;;;;;;;;;;14.46;94.84;101490.97;5021120;28;19917;-39
2022/09/17 09:03:55;;;;;;;;;;;;;;;14.13;95.64;101491.84;5020865;28;20100;-43
2022/09/17 09:06:22;;;;;;;;;;;;;;;13.67;100.00;101486.13;5016894;28;20038;-42
2022/09/17 09:08:50;;;;;;;;;;;;;;;13.31;99.85;101485.53;5016637;28;19936;-42
2022/09/17 09:11:17;;;;;;;;;;;;;;;12.95;100.00;101496.44;5018061;28;20012;-40
2022/09/17 09:13:45;;;;;;;;;;;;;;;12.81;100.00;101493.38;5015802;28;19996;-41
2022/09/17 09:16:14;;;;;;;;;;;;;;;13.09;100.00;101495.84;5010362;28;20016;-41
2022/09/17 09:18:41;;;;;;;;;;;;;;;13.49;100.00;101498.84;5001773;28;19917;-41
2022/09/17 09:21:29;;;;;;;;;;;;;;;13.98;100.00;101497.06;4998876;28;20276;-44
2022/09/17 09:24:13;;;;;;;;;;;;;;;14.38;99.60;101499.06;5005121;28;20307;-40
2022/09/17 09:26:53;;;;;;;;;;;;;;;14.47;96.89;101504.25;5001477;28;19918;-39
2022/09/17 09:29:37;;;;;;;;;;;;;;;14.46;96.83;101507.09;5000812;28;19967;-40
2022/09/17 09:32:21;;;;;;;;;;;;;;;14.32;95.11;101500.56;5000937;28;19924;-41
2022/09/17 09:34:47;;;;;;;;;;;;;;;14.29;93.23;101503.59;4999760;28;20030;-42
2022/09/17 09:37:18;;;;;;;;;;;;;;;14.22;95.33;101508.78;5008629;28;20364;-41
2022/09/17 09:39:45;;;;;;;;;;;;;;;14.33;95.72;101503.09;5012049;28;20063;-40
2022/09/17 09:42:14;;;;;;;;;;;;;;;14.73;95.84;101498.69;5017634;28;20353;-41
2022/09/17 09:44:40;;;;;;;;;;;;;;;15.16;94.91;101509.13;5004898;28;19941;-42
2022/09/17 09:47:12;;;;;;;;;;;;;;;15.30;93.70;101500.28;5017280;28;20055;-42
2022/09/17 09:49:56;;;;;;;;;;;;;;;15.41;93.97;101506.28;5031981;28;19909;-42
2022/09/17 09:52:40;;;;;;;;;;;;;;;15.42;90.48;101505.28;5018586;28;20289;-40
2022/09/17 09:55:24;;;;;;;;;;;;;;;15.52;91.29;101500.50;5016110;28;19920;-42
2022/09/17 09:57:53;;;;;;;;;;;;;;;15.47;92.20;101497.50;5017497;28;20362;-39
2022/09/17 10:00:29;;;;;;;;;;;;;;;15.45;90.89;101500.38;5000832;28;20038;-41
2022/09/17 10:03:01;;;;;;;;;;;;;;;15.54;88.42;101503.03;5006304;28;20005;-41
2022/09/17 10:05:27;;;;;;;;;;;;;;;15.47;85.32;101501.03;4997762;28;20024;-42
2022/09/17 10:07:52;;;;;;;;;;;;;;;15.62;86.60;101509.19;4996121;28;20095;-45
2022/09/17 10:10:19;;;;;;;;;;;;;;;15.84;87.15;101510.25;5000068;28;20323;-40
2022/09/17 10:12:44;;;;;;;;;;;;;;;16.00;85.62;101519.22;5000629;28;20354;-41
2022/09/17 10:15:26;;;;;;;;;;;;;;;16.14;86.54;101514.91;4999274;28;19927;-42
2022/09/17 10:18:10;;;;;;;;;;;;;;;15.99;87.60;101509.50;5004977;28;19986;-41
2022/09/17 10:20:47;;;;;;;;;;;;;;;15.25;90.44;101509.91;4999344;28;20022;-41
2022/09/17 10:23:12;;;;;;;;;;;;;;;14.98;91.95;101503.13;4999643;28;19914;-44
2022/09/17 10:25:41;;;;;;;;;;;;;;;14.81;96.06;101503.19;4999955;28;20295;-42
2022/09/17 10:28:20;;;;;;;;;;;;;;;14.65;95.15;101505.94;5028095;28;20283;-40
2022/09/17 10:31:08;;;;;;;;;;;;;;;14.83;96.69;101501.16;4999751;28;20016;-40
2022/09/17 10:33:35;;;;;;;;;;;;;;;15.20;94.75;101499.66;5000178;28;19921;-42
2022/09/17 10:36:13;;;;;;;;;;;;;;;15.33;91.20;101493.72;4998719;28;19920;-42
2022/09/17 10:38:39;;;;;;;;;;;;;;;15.35;89.92;101486.31;5002483;28;19969;-41
2022/09/17 10:41:12;;;;;;;;;;;;;;;15.47;87.73;101484.88;5002150;28;19963;-41
2022/09/17 10:43:38;;;;;;;;;;;;;;;15.46;89.06;101482.38;5005544;28;19944;-43
2022/09/17 10:46:03;;;;;;;;;;;;;;;15.59;91.11;101479.94;5011383;28;19986;-39
2022/09/17 10:48:36;;;;;;;;;;;;;;;15.69;89.20;101485.09;5019119;28;20016;-42
2022/09/17 10:51:02;;;;;;;;;;;;;;;15.81;89.13;101490.91;5008251;28;20304;-42
2022/09/17 10:53:27;;;;;;;;;;;;;;;15.94;89.88;101484.94;5007606;28;19920;-42
2022/09/17 10:56:11;;;;;;;;;;;;;;;16.10;86.53;101489.34;5020793;28;20670;-46
2022/09/17 10:58:44;;;;;;;;;;;;;;;16.34;85.90;101488.28;5004331;28;19937;-42
2022/09/17 11:01:31;;;;;;;;;;;;;;;16.64;84.03;101493.72;5003633;28;19914;-41
2022/09/17 11:04:29;;;;;;;;;;;;;;;16.67;82.56;101498.75;5003346;28;20325;-41
2022/09/17 11:07:09;;;;;;;;;;;;;;;16.34;82.66;101489.09;4999755;28;20429;-42
2022/09/17 11:09:34;;;;;;;;;;;;;;;15.99;83.29;101488.75;5011639;28;20379;-40
2022/09/17 11:12:18;;;;;;;;;;;;;;;15.95;83.88;101482.03;5003395;28;20169;-40
2022/09/17 11:14:49;;;;;;;;;;;;;;;16.05;79.58;101484.50;5003671;28;19917;-41
2022/09/17 11:17:30;;;;;;;;;;;;;;;16.18;83.85;101463.16;5003559;28;20089;-42
2022/09/17 11:20:14;;;;;;;;;;;;;;;16.22;81.02;101474.41;5000316;28;19918;-41
2022/09/17 11:22:58;;;;;;;;;;;;;;;16.32;80.86;101474.97;5004233;28;20368;-41
2022/09/17 11:25:23;;;;;;;;;;;;;;;16.72;81.30;101470.19;5003569;28;19924;-41
2022/09/17 11:27:55;;;;;;;;;;;;;;;17.15;82.92;101472.22;5003314;28;20061;-42
2022/09/17 11:30:22;;;;;;;;;;;;;;;17.28;77.08;101475.06;5002840;28;20443;-41
2022/09/17 11:33:12;;;;;;;;;;;;;;;17.35;77.61;101480.53;5003422;28;20017;-44
2022/09/17 11:35:40;;;;;;;;;;;;;;;17.38;77.65;101476.63;5001010;28;19913;-40
2022/09/17 11:38:05;;;;;;;;;;;;;;;17.31;77.32;101463.91;5007705;28;19927;-41
2022/09/17 11:40:42;;;;;;;;;;;;;;;17.49;80.45;101468.03;5017803;28;19921;-40
2022/09/17 11:43:19;;;;;;;;;;;;;;;17.73;77.17;101468.69;5003293;28;19988;-42
2022/09/17 11:45:54;;;;;;;;;;;;;;;17.78;76.49;101464.34;5002197;28;20024;-40
2022/09/17 11:48:22;;;;;;;;;;;;;;;17.43;74.36;101463.38;5003274;28;20018;-39
2022/09/17 11:50:54;;;;;;;;;;;;;;;17.48;77.39;101445.59;5000689;28;20375;-41
2022/09/17 11:53:21;;;;;;;;;;;;;;;17.82;79.45;101444.03;5006211;28;19996;-39
2022/09/17 11:55:54;;;;;;;;;;;;;;;18.17;75.63;101435.19;5002884;28;19918;-39
2022/09/17 11:58:22;;;;;;;;;;;;;;;18.38;72.78;101439.69;5002354;28;20448;-40
2022/09/17 12:01:08;;;;;;;;;;;;;;;18.36;67.83;101439.88;5001725;28;19913;-39
2022/09/17 12:03:36;;;;;;;;;;;;;;;18.20;72.49;101440.22;5001178;28;19925;-41
2022/09/17 12:06:05;;;;;;;;;;;;;;;17.64;73.78;101439.09;4999884;28;19925;-40
2022/09/17 12:08:41;;;;;;;;;;;;;;;17.07;79.33;101446.16;5003306;28;19928;-40
2022/09/17 12:11:10;;;;;;;;;;;;;;;16.44;95.32;101466.44;5001633;28;20482;-40
2022/09/17 12:13:44;;;;;;;;;;;;;;;15.32;100.00;101456.22;5002797;28;20000;-40
2022/09/17 12:16:26;;;;;;;;;;;;;;;14.55;100.00;101450.47;5002464;28;19917;-40
2022/09/17 12:19:07;;;;;;;;;;;;;;;14.36;100.00;101448.19;5002022;28;20377;-41
2022/09/17 12:21:36;;;;;;;;;;;;;;;14.64;100.00;101450.47;5001357;28;20008;-42
2022/09/17 12:24:01;;;;;;;;;;;;;;;15.01;100.00;101443.63;5001745;28;20369;-39
2022/09/17 12:26:33;;;;;;;;;;;;;;;15.44;100.00;101435.94;5001340;28;19917;-41
2022/09/17 12:29:12;;;;;;;;;;;;;;;15.99;100.00;101434.88;5002237;28;19917;-41
2022/09/17 12:31:45;;;;;;;;;;;;;;;16.73;100.00;101427.84;5002373;28;19913;-42
2022/09/17 12:34:25;;;;;;;;;;;;;;;17.36;100.00;101430.06;5003369;28;19956;-39
2022/09/17 12:37:03;;;;;;;;;;;;;;;18.38;89.09;101436.97;5006677;28;19929;-41
2022/09/17 12:39:35;;;;;;;;;;;;;;;19.15;87.71;101422.38;5018485;28;19916;-39
2022/09/17 12:42:03;;;;;;;;;;;;;;;20.09;85.12;101436.88;5021670;28;19921;-40